createdAt,value
2023-05-18T00:00:18.960Z,99769.65
2023-05-18T00:01:24.357Z,99760.84
2023-05-18T00:02:29.874Z,99764.29
2023-05-18T00:03:35.771Z,99760.62
2023-05-18T00:04:41.698Z,99769.65
2023-05-18T00:05:47.314Z,99768.41
2023-05-18T00:06:52.653Z,99764.47
2023-05-18T00:07:57.930Z,99767.08
2023-05-18T00:09:03.283Z,99766.22
2023-05-18T00:10:08.705Z,99764.88
2023-05-18T00:11:14.076Z,99768.48
2023-05-18T00:12:19.375Z,99764.47
2023-05-18T00:13:24.662Z,99761.97
2023-05-18T00:14:29.980Z,99764.65
2023-05-18T00:15:35.265Z,99770.52
2023-05-18T00:16:40.765Z,99768.95
2023-05-18T00:17:46.349Z,99767.33
2023-05-18T00:18:51.854Z,99764
2023-05-18T00:19:57.197Z,99769.19
2023-05-18T00:21:02.543Z,99768.44
2023-05-18T00:22:07.915Z,99761.5
2023-05-18T00:23:13.310Z,99758.93
2023-05-18T00:24:18.639Z,99769.29
2023-05-18T00:25:23.984Z,99766.69
2023-05-18T00:26:29.279Z,99756.07
2023-05-18T00:27:34.578Z,99762.25
2023-05-18T00:28:39.869Z,99759.98
2023-05-18T00:29:45.185Z,99757.72
2023-05-18T00:30:50.511Z,99754.22
2023-05-18T00:31:56.044Z,99760.84
2023-05-18T00:33:01.613Z,99754.5
2023-05-18T00:34:06.980Z,99763.59
2023-05-18T00:35:12.267Z,99758.23
2023-05-18T00:36:17.591Z,99759.16
2023-05-18T00:37:22.917Z,99757.48
2023-05-18T00:38:28.204Z,99761.02
2023-05-18T00:39:33.566Z,99757
2023-05-18T00:40:38.872Z,99754.8
2023-05-18T00:41:44.213Z,99753.34
2023-05-18T00:42:49.528Z,99749.32
2023-05-18T00:43:54.852Z,99754.45
2023-05-18T00:45:00.207Z,99754.39
2023-05-18T00:46:05.599Z,99757.48
2023-05-18T00:47:10.967Z,99758.41
2023-05-18T00:48:16.467Z,99761.95
2023-05-18T00:49:21.935Z,99754.38
2023-05-18T00:50:27.239Z,99756.25
2023-05-18T00:51:32.542Z,99755.5
2023-05-18T00:52:37.849Z,99758.93
2023-05-18T00:53:45.353Z,99757.18
2023-05-18T00:54:50.698Z,99761.61
2023-05-18T00:55:56.008Z,99763.36
2023-05-18T00:57:01.294Z,99753.93
2023-05-18T00:58:06.594Z,99757.18
2023-05-18T00:59:12.088Z,99758.28
2023-05-18T01:00:17.456Z,99762.89
2023-05-18T01:01:22.875Z,99767.08
2023-05-18T01:02:28.373Z,99767.97
2023-05-18T01:03:33.929Z,99763.05
2023-05-18T01:04:39.290Z,99765.29
2023-05-18T01:05:44.707Z,99768.41
2023-05-18T01:06:50.012Z,99771.17
2023-05-18T01:07:55.294Z,99770.01
2023-05-18T01:09:00.603Z,99768.59
2023-05-18T01:10:05.920Z,99756.04
2023-05-18T01:11:11.360Z,99770.75
2023-05-18T01:12:16.748Z,99763.41
2023-05-18T01:13:22.107Z,99765.48
2023-05-18T01:14:30.519Z,99764
2023-05-18T01:15:35.967Z,99766.43
2023-05-18T01:16:41.368Z,99774.13
2023-05-18T01:17:46.804Z,99769.7
2023-05-18T01:18:52.278Z,99766.27
2023-05-18T01:19:57.616Z,99771.27
2023-05-18T01:21:02.888Z,99766.75
2023-05-18T01:22:08.160Z,99766.68
2023-05-18T01:23:13.470Z,99771.69
2023-05-18T01:24:18.778Z,99771.27
2023-05-18T01:25:24.077Z,99765.09
2023-05-18T01:26:29.368Z,99768.18
2023-05-18T01:27:34.630Z,99768.66
2023-05-18T01:28:39.922Z,99766.68
2023-05-18T01:29:45.212Z,99772.69
2023-05-18T01:30:50.598Z,99772.69
2023-05-18T01:31:55.961Z,99771.55
2023-05-18T01:33:01.311Z,99773.61
2023-05-18T01:34:06.952Z,99772.27
2023-05-18T01:35:12.243Z,99772.37
2023-05-18T01:36:17.550Z,99768.95
2023-05-18T01:37:22.826Z,99772.79
2023-05-18T01:38:28.138Z,99773.72
2023-05-18T01:39:33.438Z,99766.52
2023-05-18T01:40:38.720Z,99773.22
2023-05-18T01:41:44.003Z,99773.63
2023-05-18T01:42:49.266Z,99783.09
2023-05-18T01:43:54.555Z,99772.7
2023-05-18T01:44:59.904Z,99785.09
2023-05-18T01:46:05.268Z,99786.7
2023-05-18T01:47:10.612Z,99791.2
2023-05-18T01:48:15.912Z,99782.19
2023-05-18T01:49:21.193Z,99785.84
2023-05-18T01:50:26.527Z,99782.01
2023-05-18T01:51:31.802Z,99780.22
2023-05-18T01:52:37.053Z,99777.91
2023-05-18T01:53:42.333Z,99776.19
2023-05-18T01:54:47.622Z,99783.27
2023-05-18T01:55:52.897Z,99787.7
2023-05-18T01:56:58.173Z,99785.02
2023-05-18T01:58:03.461Z,99788.63
2023-05-18T01:59:08.746Z,99787.37
2023-05-18T02:00:14.053Z,99791.31
2023-05-18T02:01:19.411Z,99784.76
2023-05-18T02:02:25.004Z,99784.11
2023-05-18T02:03:30.761Z,99794.47
2023-05-18T02:04:36.319Z,99787.78
2023-05-18T02:05:41.631Z,99789.53
2023-05-18T02:06:46.926Z,99792.8
2023-05-18T02:07:52.229Z,99790.7
2023-05-18T02:08:57.538Z,99785.34
2023-05-18T02:10:03.073Z,99788.27
2023-05-18T02:11:08.356Z,99794.55
2023-05-18T02:12:13.651Z,99791.45
2023-05-18T02:13:18.928Z,99786.9
2023-05-18T02:14:24.250Z,99791.88
2023-05-18T02:15:29.921Z,99790.94
2023-05-18T02:16:35.540Z,99794.52
2023-05-18T02:17:41.148Z,99795.48
2023-05-18T02:18:46.556Z,99799.49
2023-05-18T02:19:51.999Z,99796.92
2023-05-18T02:20:57.280Z,99792.98
2023-05-18T02:22:02.562Z,99793.83
2023-05-18T02:23:07.903Z,99795.58
2023-05-18T02:24:13.219Z,99794.24
2023-05-18T02:25:18.504Z,99791.92
2023-05-18T02:26:23.904Z,99793.39
2023-05-18T02:27:29.178Z,99785.73
2023-05-18T02:28:34.534Z,99798.33
2023-05-18T02:29:39.832Z,99800.47
2023-05-18T02:30:45.169Z,99798.72
2023-05-18T02:31:50.578Z,99800.94
2023-05-18T02:32:56.022Z,99795.34
2023-05-18T02:34:01.532Z,99798.33
2023-05-18T02:35:06.899Z,99798.38
2023-05-18T02:36:12.214Z,99804.62
2023-05-18T02:37:17.582Z,99802.97
2023-05-18T02:38:22.900Z,99807.17
2023-05-18T02:39:28.256Z,99814.52
2023-05-18T02:40:34.522Z,99803.15
2023-05-18T02:41:39.847Z,99804.8
2023-05-18T02:42:45.173Z,99810.49
2023-05-18T02:43:50.488Z,99804.9
2023-05-18T02:44:55.800Z,99814
2023-05-18T02:46:01.229Z,99811.08
2023-05-18T02:47:06.562Z,99811.94
2023-05-18T02:48:11.896Z,99810.49
2023-05-18T02:49:17.311Z,99810.84
2023-05-18T02:50:22.650Z,99809.67
2023-05-18T02:51:28.002Z,99809.74
2023-05-18T02:52:33.333Z,99809.09
2023-05-18T02:53:38.664Z,99808.69
2023-05-18T02:54:44.342Z,99810.02
2023-05-18T02:55:49.836Z,99811.47
2023-05-18T02:56:55.164Z,99816.86
2023-05-18T02:58:00.494Z,99813.45
2023-05-18T02:59:08.625Z,99819.92
2023-05-18T03:00:14.067Z,99820.56
2023-05-18T03:01:19.594Z,99820.16
2023-05-18T03:02:25.044Z,99819.64
2023-05-18T03:03:30.646Z,99820.41
2023-05-18T03:04:36.197Z,99819.27
2023-05-18T03:05:41.496Z,99825.76
2023-05-18T03:06:46.859Z,99822.83
2023-05-18T03:07:52.327Z,99831.69
2023-05-18T03:08:57.659Z,99829.94
2023-05-18T03:10:03.040Z,99826.69
2023-05-18T03:11:08.421Z,99827.44
2023-05-18T03:12:13.751Z,99825.28
2023-05-18T03:13:19.086Z,99830.02
2023-05-18T03:14:24.379Z,99830.63
2023-05-18T03:15:30.208Z,99836.71
2023-05-18T03:16:36.108Z,99834.03
2023-05-18T03:17:41.562Z,99836.71
2023-05-18T03:18:46.999Z,99830.81
2023-05-18T03:19:52.364Z,99836.3
2023-05-18T03:20:57.644Z,99830.22
2023-05-18T03:22:02.980Z,99836.06
2023-05-18T03:23:08.299Z,99837.74
2023-05-18T03:24:13.593Z,99838.67
2023-05-18T03:25:18.938Z,99836.16
2023-05-18T03:26:24.270Z,99836.27
2023-05-18T03:27:29.627Z,99845.37
2023-05-18T03:28:34.958Z,99845.55
2023-05-18T03:29:40.260Z,99839.26
2023-05-18T03:30:45.572Z,99837.45
2023-05-18T03:31:51.021Z,99844.95
2023-05-18T03:32:56.449Z,99839.95
2023-05-18T03:34:01.853Z,99844.09
2023-05-18T03:35:07.207Z,99840.36
2023-05-18T03:36:12.515Z,99843.14
2023-05-18T03:37:17.814Z,99838.27
2023-05-18T03:38:23.141Z,99846.78
2023-05-18T03:39:28.495Z,99844.61
2023-05-18T03:40:33.796Z,99848.63
2023-05-18T03:41:39.131Z,99849.22
2023-05-18T03:42:44.435Z,99849.91
2023-05-18T03:43:49.725Z,99851.83
2023-05-18T03:44:55.072Z,99856.77
2023-05-18T03:46:00.452Z,99853.94
2023-05-18T03:47:05.909Z,99857.59
2023-05-18T03:48:11.313Z,99857.95
2023-05-18T03:49:16.740Z,99860.22
2023-05-18T03:50:22.058Z,99858.05
2023-05-18T03:51:27.347Z,99863.47
2023-05-18T03:52:32.641Z,99867.48
2023-05-18T03:53:37.970Z,99872.92
2023-05-18T03:54:43.279Z,99868.91
2023-05-18T03:55:48.590Z,99878.28
2023-05-18T03:56:53.975Z,99868.42
2023-05-18T03:57:59.291Z,99880.95
2023-05-18T03:59:04.572Z,99877.11
2023-05-18T04:00:09.898Z,99875.36
2023-05-18T04:01:15.232Z,99876.11
2023-05-18T04:02:20.667Z,99882.75
2023-05-18T04:03:26.503Z,99881.06
2023-05-18T04:04:32.029Z,99879.3
2023-05-18T04:05:37.346Z,99874.89
2023-05-18T04:06:42.649Z,99877.67
2023-05-18T04:07:48.088Z,99889.17
2023-05-18T04:08:53.376Z,99890.09
2023-05-18T04:09:58.667Z,99894.53
2023-05-18T04:11:04.026Z,99891.2
2023-05-18T04:12:09.336Z,99895.14
2023-05-18T04:13:14.631Z,99898.58
2023-05-18T04:14:19.936Z,99893.8
2023-05-18T04:15:25.463Z,99902.15
2023-05-18T04:16:30.844Z,99895.31
2023-05-18T04:17:36.235Z,99900.84
2023-05-18T04:18:41.734Z,99899.98
2023-05-18T04:19:47.110Z,99904.52
2023-05-18T04:20:52.417Z,99904.52
2023-05-18T04:21:57.720Z,99910.7
2023-05-18T04:23:03.101Z,99906.68
2023-05-18T04:24:08.437Z,99905.11
2023-05-18T04:25:13.714Z,99901.36
2023-05-18T04:26:19.113Z,99918.33
2023-05-18T04:27:24.517Z,99913.89
2023-05-18T04:28:29.835Z,99908.89
2023-05-18T04:29:35.133Z,99915.23
2023-05-18T04:30:40.404Z,99913.66
2023-05-18T04:31:45.786Z,99918.91
2023-05-18T04:32:51.256Z,99913.42
2023-05-18T04:33:56.676Z,99914.34
2023-05-18T04:35:01.960Z,99923.86
2023-05-18T04:36:07.360Z,99913.01
2023-05-18T04:37:12.627Z,99929.22
2023-05-18T04:38:17.917Z,99924.27
2023-05-18T04:39:23.220Z,99934.05
2023-05-18T04:40:28.548Z,99929.73
2023-05-18T04:42:35.205Z,99938.25
2023-05-18T04:43:40.513Z,99933.75
2023-05-18T04:44:45.866Z,99939.1
2023-05-18T04:45:51.187Z,99938.69
2023-05-18T04:46:56.533Z,99930.17
2023-05-18T04:48:02.181Z,99933.17
2023-05-18T04:49:07.572Z,99934.02
2023-05-18T04:50:12.857Z,99935.02
2023-05-18T04:51:18.154Z,99939.04
2023-05-18T04:52:23.449Z,99939.97
2023-05-18T04:53:28.885Z,99948.07
2023-05-18T04:54:34.190Z,99941.85
2023-05-18T04:55:39.505Z,99936.53
2023-05-18T04:56:44.884Z,99932.52
2023-05-18T04:57:50.146Z,99944.12
2023-05-18T04:58:55.589Z,99939.69
2023-05-18T05:00:00.932Z,99937.94
2023-05-18T05:01:06.400Z,99935.27
2023-05-18T05:02:11.834Z,99931.83
2023-05-18T05:03:17.407Z,99931.24
2023-05-18T05:04:22.834Z,99936.77
2023-05-18T05:05:28.193Z,99932.99
2023-05-18T05:06:33.701Z,99936.26
2023-05-18T05:07:39.056Z,99936.59
2023-05-18T05:08:44.405Z,99938.94
2023-05-18T05:09:49.714Z,99939.8
2023-05-18T05:10:55.019Z,99941.89
2023-05-18T05:12:00.367Z,99930.25
2023-05-18T05:13:05.686Z,99944.39
2023-05-18T05:14:10.975Z,99950.58
2023-05-18T05:15:16.295Z,99942.58
2023-05-18T05:16:21.766Z,99953.19
2023-05-18T05:17:27.251Z,99956.69
2023-05-18T05:18:32.613Z,99952.33
2023-05-18T05:19:37.938Z,99961.7
2023-05-18T05:20:43.217Z,99961.3
2023-05-18T05:21:48.494Z,99960.12
2023-05-18T05:22:53.931Z,99966.23
2023-05-18T05:23:59.371Z,99956.63
2023-05-18T05:25:07.351Z,99959.89
2023-05-18T05:26:12.671Z,99953.12
2023-05-18T05:27:17.964Z,99960.57
2023-05-18T05:28:23.391Z,99957.45
2023-05-18T05:29:28.663Z,99955.66
2023-05-18T05:30:33.927Z,99959.23
2023-05-18T05:31:39.418Z,99961.3
2023-05-18T05:32:44.944Z,99957.96
2023-05-18T05:33:50.383Z,99962.73
2023-05-18T05:34:55.767Z,99960.09
2023-05-18T05:36:01.099Z,99966.52
2023-05-18T05:37:06.410Z,99966.27
2023-05-18T05:38:11.848Z,99965.59
2023-05-18T05:39:17.162Z,99968.44
2023-05-18T05:40:22.503Z,99969.77
2023-05-18T05:41:27.848Z,99974.13
2023-05-18T05:42:35.706Z,99970.7
2023-05-18T05:43:41.020Z,99973.2
2023-05-18T05:44:46.348Z,99967.09
2023-05-18T05:45:51.666Z,99968.44
2023-05-18T05:46:57.049Z,99965.62
2023-05-18T05:48:02.811Z,99972.83
2023-05-18T05:49:08.198Z,99977.81
2023-05-18T05:50:13.523Z,99974.58
2023-05-18T05:51:18.816Z,99975.92
2023-05-18T05:52:24.122Z,99980.91
2023-05-18T05:53:29.433Z,99986.77
2023-05-18T05:54:34.808Z,99966.3
2023-05-18T05:55:40.121Z,99976.98
2023-05-18T05:56:45.463Z,99979.94
2023-05-18T05:57:50.768Z,99988.21
2023-05-18T05:58:56.076Z,99987.28
2023-05-18T06:00:01.517Z,99979.52
2023-05-18T06:01:06.991Z,99986.8
2023-05-18T06:02:12.396Z,99987.7
2023-05-18T06:03:18.084Z,99992.64
2023-05-18T06:04:23.841Z,99991.72
2023-05-18T06:05:29.451Z,99988.05
2023-05-18T06:06:35.249Z,99991.3
2023-05-18T06:07:40.545Z,99987.22
2023-05-18T06:08:45.840Z,99995.84
2023-05-18T06:09:51.195Z,99995.66
2023-05-18T06:10:56.488Z,100003.42
2023-05-18T06:12:01.838Z,99990.48
2023-05-18T06:13:07.223Z,100002.02
2023-05-18T06:14:12.930Z,100000.2
2023-05-18T06:15:18.328Z,100003.36
2023-05-18T06:16:23.871Z,100001.5
2023-05-18T06:17:29.348Z,100002.59
2023-05-18T06:18:34.842Z,100003.77
2023-05-18T06:19:40.210Z,100007.79
2023-05-18T06:20:45.535Z,100004.7
2023-05-18T06:21:50.853Z,99998.03
2023-05-18T06:22:56.198Z,99997.52
2023-05-18T06:24:01.544Z,100010.88
2023-05-18T06:25:06.990Z,100008.55
2023-05-18T06:26:12.341Z,100007.89
2023-05-18T06:27:17.639Z,100014.31
2023-05-18T06:28:22.985Z,100002.7
2023-05-18T06:29:28.287Z,100012.48
2023-05-18T06:30:33.622Z,100017.58
2023-05-18T06:31:38.957Z,100019.33
2023-05-18T06:32:44.460Z,100017.98
2023-05-18T06:33:49.846Z,100014.75
2023-05-18T06:34:55.188Z,100018.91
2023-05-18T06:36:00.537Z,100013
2023-05-18T06:37:05.878Z,100015.48
2023-05-18T06:38:11.168Z,100021.77
2023-05-18T06:39:16.527Z,100018.36
2023-05-18T06:40:21.857Z,100021.35
2023-05-18T06:41:27.205Z,100017.67
2023-05-18T06:42:32.511Z,100020.18
2023-05-18T06:43:37.814Z,100022.03
2023-05-18T06:44:43.131Z,100031.99
2023-05-18T06:45:48.512Z,100027.98
2023-05-18T06:46:53.910Z,100026.3
2023-05-18T06:47:59.375Z,100026.05
2023-05-18T06:49:04.828Z,100030.21
2023-05-18T06:50:10.160Z,100027.13
2023-05-18T06:51:15.484Z,100037.52
2023-05-18T06:52:20.907Z,100031.41
2023-05-18T06:53:27.120Z,100029.24
2023-05-18T06:54:32.454Z,100042.36
2023-05-18T06:55:37.796Z,100041.44
2023-05-18T06:56:43.112Z,100033.33
2023-05-18T06:57:48.438Z,100037.69
2023-05-18T06:58:53.735Z,100037.42
2023-05-18T06:59:59.076Z,100031
2023-05-18T07:01:04.478Z,100040.09
2023-05-18T07:02:09.925Z,100041.44
2023-05-18T07:03:15.483Z,100038.69
2023-05-18T07:04:21.003Z,100039.78
2023-05-18T07:05:26.317Z,100033.33
2023-05-18T07:06:31.699Z,100042.95
2023-05-18T07:07:37.104Z,100043.87
2023-05-18T07:08:42.503Z,100042.95
2023-05-18T07:09:47.822Z,100040.13
2023-05-18T07:10:53.161Z,100044.7
2023-05-18T07:11:58.498Z,100041.37
2023-05-18T07:13:03.885Z,100048.23
2023-05-18T07:14:09.192Z,100050.5
2023-05-18T07:15:14.541Z,100044.8
2023-05-18T07:16:19.915Z,100047.37
2023-05-18T07:17:25.593Z,100048.72
2023-05-18T07:18:30.997Z,100043.56
2023-05-18T07:19:36.322Z,100045.31
2023-05-18T07:20:41.632Z,100038.55
2023-05-18T07:21:46.966Z,100046.55
2023-05-18T07:22:52.430Z,100042.95
2023-05-18T07:23:57.780Z,100048.3
2023-05-18T07:25:03.158Z,100035.05
2023-05-18T07:26:08.488Z,100055.1
2023-05-18T07:27:13.856Z,100052.73
2023-05-18T07:28:19.192Z,100049.09
2023-05-18T07:29:24.554Z,100053.18
2023-05-18T07:30:29.901Z,100049.23
2023-05-18T07:31:35.357Z,100053.66
2023-05-18T07:32:40.822Z,100053.25
2023-05-18T07:33:46.351Z,100048.58
2023-05-18T07:34:51.688Z,100058.09
2023-05-18T07:35:57.026Z,100055
2023-05-18T07:37:02.385Z,100049.5
2023-05-18T07:38:07.727Z,100059.02
2023-05-18T07:39:13.077Z,100052.34
2023-05-18T07:40:18.388Z,100056.34
2023-05-18T07:41:23.850Z,100060.22
2023-05-18T07:42:29.210Z,100061.7
2023-05-18T07:43:34.551Z,100054.86
2023-05-18T07:44:39.939Z,100059.39
2023-05-18T07:45:45.304Z,100060.97
2023-05-18T07:46:50.682Z,100055.44
2023-05-18T07:47:56.577Z,100064.72
2023-05-18T07:49:02.068Z,100062.97
2023-05-18T07:50:07.547Z,100066.05
2023-05-18T07:51:12.900Z,100057.84
2023-05-18T07:52:18.259Z,100062.38
2023-05-18T07:53:23.628Z,100065.3
2023-05-18T07:54:29.064Z,100057.19
2023-05-18T07:55:34.855Z,100063.79
2023-05-18T07:56:40.214Z,100063.89
2023-05-18T07:57:45.532Z,100067.05
2023-05-18T07:58:50.875Z,100064.3
2023-05-18T07:59:56.269Z,100065.72
2023-05-18T08:01:01.658Z,100068.39
2023-05-18T08:02:07.056Z,100070.66
2023-05-18T08:03:12.707Z,100067.56
2023-05-18T08:04:18.210Z,100061.72
2023-05-18T08:05:23.640Z,100061.83
2023-05-18T08:06:29.017Z,100063.82
2023-05-18T08:07:34.371Z,100066.56
2023-05-18T08:08:39.686Z,100062.06
2023-05-18T08:09:45.047Z,100063.64
2023-05-18T08:10:50.381Z,100075.7
2023-05-18T08:11:55.775Z,100069.48
2023-05-18T08:13:01.127Z,100069.25
2023-05-18T08:14:06.471Z,100070
2023-05-18T08:15:11.833Z,100074.02
2023-05-18T08:16:17.226Z,100058.39
2023-05-18T08:17:22.770Z,100069.25
2023-05-18T08:18:28.402Z,100069.45
2023-05-18T08:19:33.824Z,100067.49
2023-05-18T08:20:39.160Z,100079.89
2023-05-18T08:21:44.495Z,100075.36
2023-05-18T08:22:49.947Z,100064.09
2023-05-18T08:23:55.344Z,100071.27
2023-05-18T08:25:00.678Z,100078.13
2023-05-18T08:26:06.009Z,100079.38
2023-05-18T08:27:11.429Z,100077.21
2023-05-18T08:28:16.867Z,100080.81
2023-05-18T08:29:22.184Z,100074.87
2023-05-18T08:30:27.521Z,100081.64
2023-05-18T08:31:32.868Z,100079.55
2023-05-18T08:32:38.629Z,100077.03
2023-05-18T08:33:44.173Z,100077.69
2023-05-18T08:34:49.482Z,100084.32
2023-05-18T08:35:54.876Z,100080.3
2023-05-18T08:37:00.307Z,100079.71
2023-05-18T08:38:07.180Z,100079.64
2023-05-18T08:39:12.520Z,100083.39
2023-05-18T08:40:18.053Z,100086.89
2023-05-18T08:41:23.561Z,100082.88
2023-05-18T08:42:48.968Z,100084.08
2023-05-18T08:43:55.388Z,100080.06
2023-05-18T08:45:00.756Z,100083.29
2023-05-18T08:46:08.958Z,100087.16
2023-05-18T08:47:14.470Z,100082.39
2023-05-18T08:48:20.013Z,100094.86
2023-05-18T08:49:25.520Z,100044.61
2023-05-18T08:50:31.387Z,100092.08
2023-05-18T08:51:37.469Z,100087.24
2023-05-18T08:52:42.849Z,100089.51
2023-05-18T08:53:48.215Z,100083.97
2023-05-18T08:54:53.577Z,100093.84
2023-05-18T08:55:58.917Z,100085.66
2023-05-18T08:57:04.421Z,100081.23
2023-05-18T08:58:09.849Z,100084.87
2023-05-18T08:59:15.229Z,100087.66
2023-05-18T09:00:21.664Z,100082.3
2023-05-18T09:01:29.569Z,100087.14
2023-05-18T09:02:35.180Z,100093.02
2023-05-18T09:03:40.620Z,100081.3
2023-05-18T09:04:46.077Z,100082.63
2023-05-18T09:05:51.500Z,100074.19
2023-05-18T09:06:56.916Z,100077.28
2023-05-18T09:08:02.365Z,100074.29
2023-05-18T09:09:07.951Z,100086.73
2023-05-18T09:10:13.304Z,100074.78
2023-05-18T09:11:18.647Z,100075.6
2023-05-18T09:12:26.017Z,100074.95
2023-05-18T09:13:31.392Z,100073.75
2023-05-18T09:14:36.721Z,100066.98
2023-05-18T09:15:42.174Z,100076.42
2023-05-18T09:16:47.588Z,100079.11
2023-05-18T09:17:53.043Z,100075.45
2023-05-18T09:18:58.559Z,100075.5
2023-05-18T09:20:04.030Z,100076.84
2023-05-18T09:21:09.430Z,100073.75
2023-05-18T09:22:14.822Z,100068.77
2023-05-18T09:23:20.204Z,100072.41
2023-05-18T09:24:26.395Z,100071.69
2023-05-18T09:25:32.162Z,100078.01
2023-05-18T09:26:37.680Z,100076.36
2023-05-18T09:27:43.160Z,100070.14
2023-05-18T09:28:48.480Z,100073.75
2023-05-18T09:29:53.828Z,100072.09
2023-05-18T09:30:59.259Z,100070.91
2023-05-18T09:32:04.986Z,100048.2
2023-05-18T09:33:10.706Z,100075.27
2023-05-18T09:34:16.163Z,100069.91
2023-05-18T09:35:21.518Z,100072.92
2023-05-18T09:36:27.091Z,100070.14
2023-05-18T09:37:32.506Z,100069.31
2023-05-18T09:38:37.871Z,100072.24
2023-05-18T09:39:43.184Z,100071.25
2023-05-18T09:40:48.517Z,100073.82
2023-05-18T09:41:53.822Z,100068.8
2023-05-18T09:42:59.279Z,100073.82
2023-05-18T09:44:04.691Z,100073.92
2023-05-18T09:45:10.007Z,100069.8
2023-05-18T09:46:15.390Z,100068.66
2023-05-18T09:47:20.765Z,100073.52
2023-05-18T09:48:26.865Z,100068.32
2023-05-18T09:49:32.207Z,100072.9
2023-05-18T09:50:37.610Z,100064.62
2023-05-18T09:51:42.946Z,100075.27
2023-05-18T09:52:48.285Z,100080.52
2023-05-18T09:53:53.635Z,100072.9
2023-05-18T09:54:58.949Z,100077.26
2023-05-18T09:56:04.292Z,100075.58
2023-05-18T09:57:12.795Z,100079.94
2023-05-18T09:58:18.123Z,100072.48
2023-05-18T09:59:23.459Z,100071.25
2023-05-18T10:00:28.887Z,100071
2023-05-18T10:01:34.340Z,100080.34
2023-05-18T10:02:39.896Z,100077.73
2023-05-18T10:03:45.344Z,100074.84
2023-05-18T10:04:50.841Z,100072.24
2023-05-18T10:05:56.332Z,100072.24
2023-05-18T10:07:01.662Z,100076.84
2023-05-18T10:08:07.017Z,100077.26
2023-05-18T10:09:12.394Z,100075.06
2023-05-18T10:10:17.822Z,100076.33
2023-05-18T10:11:23.349Z,100071.66
2023-05-18T10:12:28.727Z,100079.52
2023-05-18T10:13:34.109Z,100080.66
2023-05-18T10:14:39.435Z,100074.99
2023-05-18T10:15:44.763Z,100074.06
2023-05-18T10:16:55.156Z,100076.64
2023-05-18T10:18:19.162Z,100075.81
2023-05-18T10:19:24.851Z,100075.75
2023-05-18T10:20:30.768Z,100068.98
2023-05-18T10:21:36.509Z,100068.7
2023-05-18T10:22:41.930Z,100067.39
2023-05-18T10:23:47.409Z,100075.81
2023-05-18T10:24:52.804Z,100068.37
2023-05-18T10:25:58.187Z,100065.48
2023-05-18T10:27:03.624Z,100072.62
2023-05-18T10:28:09.015Z,100065.03
2023-05-18T10:29:14.382Z,100066.86
2023-05-18T10:30:19.817Z,100067.13
2023-05-18T10:31:25.270Z,100069.47
2023-05-18T10:32:30.758Z,100077.5
2023-05-18T10:33:36.373Z,100070.56
2023-05-18T10:34:41.961Z,100066.3
2023-05-18T10:35:47.344Z,100047.95
2023-05-18T10:36:52.670Z,100060.95
2023-05-18T10:37:58.047Z,100073.07
2023-05-18T10:39:03.432Z,100068.56
2023-05-18T10:40:08.954Z,100078.43
2023-05-18T10:41:14.382Z,100074.06
2023-05-18T10:42:19.752Z,100074.99
2023-05-18T10:43:25.671Z,100075.3
2023-05-18T10:44:30.991Z,100069.56
2023-05-18T10:45:36.354Z,100076.6
2023-05-18T10:46:41.817Z,100077.98
2023-05-18T10:47:47.744Z,100069.8
2023-05-18T10:48:53.455Z,100069.91
2023-05-18T10:49:58.846Z,100072.9
2023-05-18T10:51:04.299Z,100073.97
2023-05-18T10:52:09.647Z,100081.52
2023-05-18T10:53:14.967Z,100071.55
2023-05-18T10:54:20.516Z,100074.23
2023-05-18T10:55:26.115Z,100080.42
2023-05-18T10:56:31.467Z,100081.52
2023-05-18T10:57:37.003Z,100078.25
2023-05-18T10:58:42.367Z,100077.91
2023-05-18T10:59:49.920Z,100083.27
2023-05-18T11:00:55.448Z,100075.98
2023-05-18T11:02:00.870Z,100080.18
2023-05-18T11:03:06.412Z,100088.63
2023-05-18T11:04:12.048Z,100073.97
2023-05-18T11:05:17.724Z,100085.95
2023-05-18T11:06:23.467Z,100079.67
2023-05-18T11:07:28.910Z,100078.67
2023-05-18T11:08:34.270Z,100086.36
2023-05-18T11:09:39.624Z,100084.61
2023-05-18T11:10:45.130Z,100074.75
2023-05-18T11:11:50.636Z,100085.37
2023-05-18T11:12:56.027Z,100083.27
2023-05-18T11:14:01.415Z,100085.2
2023-05-18T11:15:06.787Z,100083.54
2023-05-18T11:16:12.286Z,100085.3
2023-05-18T11:17:17.948Z,100089.45
2023-05-18T11:18:23.402Z,100081.69
2023-05-18T11:19:28.967Z,100094.5
2023-05-18T11:20:34.648Z,100093.47
2023-05-18T11:21:40.199Z,100084.61
2023-05-18T11:22:45.697Z,100094.91
2023-05-18T11:23:51.206Z,100094.5
2023-05-18T11:24:56.823Z,100086.91
2023-05-18T11:26:02.460Z,100098.08
2023-05-18T11:27:07.823Z,100091.58
2023-05-18T11:28:13.226Z,100090.3
2023-05-18T11:29:18.602Z,100093.09
2023-05-18T11:30:24.040Z,100092.47
2023-05-18T11:31:29.442Z,100101.78
2023-05-18T11:32:35.148Z,100098.69
2023-05-18T11:33:40.792Z,100092.84
2023-05-18T11:34:46.760Z,100096.08
2023-05-18T11:35:52.121Z,100090.58
2023-05-18T11:36:57.477Z,100085.98
2023-05-18T11:38:02.825Z,100099.69
2023-05-18T11:39:08.295Z,100100.03
2023-05-18T11:40:13.779Z,100091.09
2023-05-18T11:41:19.356Z,100100.61
2023-05-18T11:42:24.692Z,100105.04
2023-05-18T11:43:30.833Z,100101.13
2023-05-18T11:44:36.175Z,100101.13
2023-05-18T11:45:41.497Z,100100.3
2023-05-18T11:46:46.937Z,100100.53
2023-05-18T11:47:52.392Z,100108.64
2023-05-18T11:48:58.054Z,100106.3
2023-05-18T11:50:03.464Z,100106.48
2023-05-18T11:51:09.050Z,100105.66
2023-05-18T11:52:14.409Z,100105.66
2023-05-18T11:53:19.902Z,100111.17
2023-05-18T11:54:25.325Z,100112.34
2023-05-18T11:55:30.878Z,100119.88
2023-05-18T11:56:36.215Z,100114.52
2023-05-18T11:57:41.586Z,100117.61
2023-05-18T11:58:46.969Z,100118.13
2023-05-18T11:59:52.334Z,100115.09
2023-05-18T12:00:57.752Z,100122.55
2023-05-18T12:02:03.245Z,100116.13
2023-05-18T12:03:08.996Z,100120.62
2023-05-18T12:04:14.673Z,100118.53
2023-05-18T12:05:20.261Z,100119.53
2023-05-18T12:06:25.673Z,100115.03
2023-05-18T12:07:31.020Z,100115.09
2023-05-18T12:08:36.800Z,100124.06
2023-05-18T12:09:42.157Z,100109.18
2023-05-18T12:10:47.520Z,100114.17
2023-05-18T12:11:52.893Z,100126.63
2023-05-18T12:12:58.229Z,100118.36
2023-05-18T12:14:03.802Z,100119.55
2023-05-18T12:15:09.224Z,100120.14
2023-05-18T12:16:14.827Z,100120.86
2023-05-18T12:17:20.245Z,100117.88
2023-05-18T12:18:25.622Z,100117.02
2023-05-18T12:19:31.133Z,100121.38
2023-05-18T12:20:36.638Z,100115.27
2023-05-18T12:21:41.966Z,100119.8
2023-05-18T12:22:47.292Z,100116.19
2023-05-18T12:23:52.658Z,100092.83
2023-05-18T12:24:57.974Z,100114.19
2023-05-18T12:26:03.297Z,100118.36
2023-05-18T12:27:09.176Z,100112.11
2023-05-18T12:28:14.512Z,100113.78
2023-05-18T12:29:19.856Z,100114.34
2023-05-18T12:30:25.268Z,100115.27
2023-05-18T12:31:30.719Z,100114.78
2023-05-18T12:32:36.213Z,100117.94
2023-05-18T12:33:41.591Z,100116.61
2023-05-18T12:34:46.924Z,100104.06
2023-05-18T12:35:52.250Z,100113.92
2023-05-18T12:36:57.679Z,100117.02
2023-05-18T12:38:03.957Z,100114.44
2023-05-18T12:39:09.296Z,100109.91
2023-05-18T12:40:14.650Z,100114.44
2023-05-18T12:41:20.024Z,100104.67